Time;durP1;ratioP1;P1;durP2;ratioP2;P2;SDS_P1;SDS_P2;PMS_P1;PMS_P2;Temp;Humidity;BMP_temperature;BMP_pressure;BME280_temperature;BME280_humidity;BME280_pressure;Samples;Min_cycle;Max_cycle;Signal;HPM_P1;HPM_P2
2024/02/05 00:00:16;;;;;;;4.20;1.05;;;;;;;0.28;84.17;96448.13;4989968;28;20085;-44
2024/02/05 00:02:43;;;;;;;1.33;0.40;;;;;;;0.32;85.13;96449.63;4940475;28;20038;-43
2024/02/05 00:05:10;;;;;;;7.80;1.83;;;;;;;0.38;84.74;96445.97;4996599;28;20041;-43
2024/02/05 00:07:36;;;;;;;0.77;0.52;;;;;;;0.38;84.29;96451.09;4991508;28;20152;-44
2024/02/05 00:10:05;;;;;;;7.38;0.68;;;;;;;0.28;84.02;96448.13;4975603;28;20133;-42
2024/02/05 00:12:32;;;;;;;1.38;0.60;;;;;;;0.27;84.28;96440.53;4975514;28;20072;-46
2024/02/05 00:14:59;;;;;;;1.48;0.40;;;;;;;0.19;85.07;96440.06;5007717;28;20037;-45
2024/02/05 00:17:25;;;;;;;1.92;0.70;;;;;;;0.19;85.06;96445.16;4992069;28;20128;-43
2024/02/05 00:19:52;;;;;;;0.40;0.20;;;;;;;0.02;84.88;96405.06;5006561;28;20079;-44
2024/02/05 00:22:19;;;;;;;1.85;0.57;;;;;;;0.22;84.97;96435.63;4967918;28;20532;-42
2024/02/05 00:27:37;;;;;;;2.10;0.90;;;;;;;0.06;84.69;96393.81;4987936;28;20073;-44
2024/02/05 00:30:04;;;;;;;2.28;0.80;;;;;;;-0.05;84.49;96380.69;4988740;28;20081;-44
2024/02/05 00:32:37;;;;;;;3.10;0.50;;;;;;;0.14;84.92;96427.50;4965956;28;20044;-43
2024/02/05 00:35:04;;;;;;;4.40;1.08;;;;;;;-0.09;85.01;96400.44;4990783;28;20048;-42
2024/02/05 00:37:31;;;;;;;1.90;0.77;;;;;;;-0.03;85.51;96400.16;4974083;28;20042;-41
2024/02/05 00:39:57;;;;;;;5.45;1.13;;;;;;;-0.12;85.32;96369.13;5001567;28;20037;-43
2024/02/05 00:42:23;;;;;;;1.90;0.40;;;;;;;0.25;85.04;96429.56;4958913;28;20038;-45
2024/02/05 00:44:50;;;;;;;5.47;1.42;;;;;;;0.32;85.35;96426.66;4989324;28;20845;-43
2024/02/05 00:47:15;;;;;;;1.95;0.73;;;;;;;0.43;85.17;96421.06;5008279;28;20045;-43
2024/02/05 00:49:42;;;;;;;3.85;0.70;;;;;;;0.52;85.29;96417.25;4990299;28;20038;-44
2024/02/05 00:52:10;;;;;;;1.98;0.70;;;;;;;0.30;84.44;96374.00;4974176;28;20140;-42
2024/02/05 00:54:37;;;;;;;0.77;0.50;;;;;;;0.57;84.04;96413.59;4990522;28;20128;-42
2024/02/05 00:57:03;;;;;;;1.42;0.47;;;;;;;0.53;83.95;96417.16;4975688;28;20457;-44
2024/02/05 00:59:30;;;;;;;2.90;0.52;;;;;;;0.34;83.78;96389.09;4986768;28;20605;-42
2024/02/05 01:01:57;;;;;;;2.75;0.75;;;;;;;0.57;83.81;96422.97;4971327;28;20049;-42
2024/02/05 01:04:23;;;;;;;2.03;0.70;;;;;;;0.47;83.82;96416.66;4990036;28;20042;-44
2024/02/05 01:06:49;;;;;;;2.05;0.63;;;;;;;0.34;84.22;96401.03;4974727;28;20096;-42
2024/02/05 01:09:15;;;;;;;4.25;0.70;;;;;;;0.56;83.77;96423.88;4990348;28;20042;-42
2024/02/05 01:11:41;;;;;;;2.75;0.65;;;;;;;0.49;84.19;96422.50;4973683;28;20132;-43
2024/02/05 01:14:07;;;;;;;1.63;0.60;;;;;;;0.49;83.65;96430.16;4958261;28;20050;-43
2024/02/05 01:16:34;;;;;;;3.45;0.73;;;;;;;0.43;83.68;96421.06;5002687;28;20498;-42
2024/02/05 01:19:00;;;;;;;2.50;0.80;;;;;;;0.47;84.39;96419.19;5001772;28;20053;-42
2024/02/05 01:21:27;;;;;;;4.18;0.68;;;;;;;0.44;84.61;96417.59;4988904;28;20506;-44
2024/02/05 01:23:58;;;;;;;1.80;0.80;;;;;;;0.19;84.59;96371.09;5006440;28;20210;-42
2024/02/05 01:26:25;;;;;;;3.45;0.80;;;;;;;0.40;84.54;96413.53;4969310;28;20042;-42
2024/02/05 01:28:51;;;;;;;3.80;1.00;;;;;;;0.40;84.68;96411.81;4970640;28;20157;-42
2024/02/05 01:31:17;;;;;;;3.33;0.82;;;;;;;0.35;84.56;96405.25;4958946;28;20041;-47
2024/02/05 01:33:44;;;;;;;5.82;1.20;;;;;;;0.56;84.60;96417.03;4962936;28;20038;-43
2024/02/05 01:36:10;;;;;;;4.68;2.50;;;;;;;0.57;84.37;96416.16;4999855;28;20034;-42
2024/02/05 01:38:36;;;;;;;1.80;1.13;;;;;;;0.16;84.31;96341.41;4987920;28;20084;-43
2024/02/05 01:41:04;;;;;;;1.90;0.90;;;;;;;0.54;84.06;96415.44;4937483;28;20034;-42
2024/02/05 01:43:30;;;;;;;2.92;1.00;;;;;;;0.52;84.02;96419.81;4977786;28;20052;-42
2024/02/05 01:45:56;;;;;;;5.43;1.75;;;;;;;0.54;84.02;96421.38;5005851;28;20640;-42
2024/02/05 01:48:26;;;;;;;3.83;1.60;;;;;;;0.39;84.19;96389.72;4987420;28;20469;-43
2024/02/05 01:50:52;;;;;;;0.50;0.45;;;;;;;0.63;83.72;96415.81;4954281;28;20069;-43
2024/02/05 01:53:19;;;;;;;1.48;0.93;;;;;;;0.59;83.74;96421.16;4958708;28;20041;-43
2024/02/05 01:55:48;;;;;;;7.88;1.55;;;;;;;0.60;84.25;96422.81;4989040;28;20046;-40
2024/02/05 01:58:15;;;;;;;2.60;0.80;;;;;;;0.57;84.01;96430.66;4989041;28;20034;-44
2024/02/05 02:00:41;;;;;;;2.00;1.10;;;;;;;0.56;84.42;96414.47;5005390;28;20510;-44
2024/02/05 02:03:09;;;;;;;3.35;1.33;;;;;;;0.61;84.18;96412.53;4988987;28;20125;-43
2024/02/05 02:05:36;;;;;;;2.88;1.33;;;;;;;0.65;84.34;96406.38;4972949;28;20084;-43
2024/02/05 02:08:04;;;;;;;3.15;1.20;;;;;;;0.68;83.91;96408.78;4972896;28;20034;-45
2024/02/05 02:10:31;;;;;;;1.52;0.77;;;;;;;0.54;84.38;96377.94;5005830;28;20037;-43
2024/02/05 02:13:01;;;;;;;3.28;1.10;;;;;;;0.67;83.87;96411.41;5005429;28;20041;-44
2024/02/05 02:15:28;;;;;;;1.63;1.00;;;;;;;0.64;84.50;96406.44;4943935;28;20065;-43
2024/02/05 02:17:57;;;;;;;4.20;1.73;;;;;;;0.68;84.10;96411.31;4966949;28;20136;-43
2024/02/05 02:20:24;;;;;;;4.40;1.33;;;;;;;0.38;84.16;96343.78;4994656;28;20049;-42
2024/02/05 02:22:57;;;;;;;3.10;0.88;;;;;;;0.76;84.09;96405.84;4981223;28;20046;-43
2024/02/05 02:25:24;;;;;;;1.95;1.20;;;;;;;0.68;84.21;96401.09;4971776;28;20038;-43
2024/02/05 02:27:50;;;;;;;3.42;0.70;;;;;;;0.51;84.14;96365.31;4988724;28;20121;-43
2024/02/05 02:30:18;;;;;;;2.97;1.10;;;;;;;0.54;84.22;96370.28;5005304;28;20119;-43
2024/02/05 02:32:56;;;;;;;2.55;1.05;;;;;;;0.85;83.94;96407.97;5005342;28;20509;-43
2024/02/05 02:35:35;;;;;;;1.77;0.90;;;;;;;0.75;83.80;96407.59;5004973;28;20041;-42
2024/02/05 02:38:06;;;;;;;3.45;1.30;;;;;;;0.73;84.00;96388.94;4970397;28;20546;-41
2024/02/05 02:40:33;;;;;;;2.00;1.13;;;;;;;0.79;84.07;96403.97;4953239;28;20458;-45
2024/02/05 02:43:05;;;;;;;1.90;1.10;;;;;;;0.83;84.37;96394.44;4985315;28;20050;-43
2024/02/05 02:45:32;;;;;;;3.33;1.05;;;;;;;0.85;83.62;96397.75;4984099;28;20073;-43
2024/02/05 02:47:59;;;;;;;5.70;1.45;;;;;;;0.69;83.86;96366.97;4989154;28;20099;-42
2024/02/05 02:50:27;;;;;;;3.28;1.15;;;;;;;0.94;83.65;96404.16;4952208;28;20049;-48
2024/02/05 02:52:55;;;;;;;3.60;1.38;;;;;;;0.95;83.57;96398.94;4977777;28;20161;-43
2024/02/05 02:55:21;;;;;;;5.13;1.10;;;;;;;0.93;83.53;96389.72;5000062;28;20133;-45
2024/02/05 02:57:47;;;;;;;1.48;0.80;;;;;;;0.92;83.42;96394.00;4990733;28;20045;-41
2024/02/05 03:00:14;;;;;;;3.58;1.23;;;;;;;0.94;83.86;96392.19;4993730;28;20037;-43
2024/02/05 03:02:41;;;;;;;2.25;1.20;;;;;;;0.95;83.33;96386.16;4979040;28;20045;-42
2024/02/05 03:05:07;;;;;;;3.65;1.85;;;;;;;0.52;83.34;96328.66;5000467;28;20544;-43
2024/02/05 03:07:34;;;;;;;2.15;1.23;;;;;;;0.87;83.66;96374.66;4992986;28;20050;-44
2024/02/05 03:10:03;;;;;;;6.53;1.42;;;;;;;0.81;83.46;96379.19;4992863;28;20426;-44
2024/02/05 03:12:32;;;;;;;6.07;1.73;;;;;;;0.89;83.48;96383.09;5001632;28;20042;-41
2024/02/05 03:14:59;;;;;;;1.92;0.82;;;;;;;0.85;83.40;96377.28;4999773;28;20109;-43
2024/02/05 03:17:25;;;;;;;1.95;1.00;;;;;;;0.88;83.75;96369.47;5004212;28;20497;-43
2024/02/05 03:19:51;;;;;;;3.72;1.15;;;;;;;0.88;83.45;96364.38;4980862;28;20050;-43
2024/02/05 03:22:17;;;;;;;3.33;1.38;;;;;;;0.88;83.46;96361.81;5010854;28;20042;-43
2024/02/05 03:24:43;;;;;;;8.20;1.95;;;;;;;0.81;83.47;96342.56;5011511;28;20050;-43
2024/02/05 03:27:09;;;;;;;2.92;1.65;;;;;;;1.05;83.46;96366.91;4994112;28;20072;-43
2024/02/05 03:29:36;;;;;;;8.18;2.42;;;;;;;1.11;82.85;96368.31;5014736;28;20457;-42
2024/02/05 03:32:03;;;;;;;3.60;1.65;;;;;;;1.06;81.87;96363.44;5007229;28;20132;-42
2024/02/05 03:34:29;;;;;;;5.90;1.50;;;;;;;1.02;82.30;96343.22;5010264;28;20045;-42
2024/02/05 03:36:55;;;;;;;2.38;1.10;;;;;;;1.34;81.87;96369.75;4998601;28;20168;-42
2024/02/05 03:39:21;;;;;;;2.63;0.80;;;;;;;0.77;80.34;96305.28;4990376;28;20057;-43
2024/02/05 03:41:47;;;;;;;6.50;1.75;;;;;;;1.23;80.85;96362.59;4981677;28;20037;-41
2024/02/05 03:44:13;;;;;;;5.07;1.33;;;;;;;1.30;80.70;96358.84;4986796;28;20523;-44
2024/02/05 03:46:41;;;;;;;4.15;1.77;;;;;;;1.36;80.82;96360.25;4974746;28;20568;-40
2024/02/05 03:49:07;;;;;;;4.07;1.73;;;;;;;1.45;80.46;96352.09;4992863;28;20141;-41
2024/02/05 03:51:34;;;;;;;3.75;1.63;;;;;;;1.43;80.13;96354.75;5011137;28;20628;-41
2024/02/05 03:54:04;;;;;;;2.97;0.93;;;;;;;1.30;79.57;96345.22;5012437;28;20124;-42
2024/02/05 03:56:30;;;;;;;5.13;1.95;;;;;;;1.26;79.64;96358.16;4986314;28;20049;-43
2024/02/05 03:58:56;;;;;;;4.45;1.35;;;;;;;1.20;79.68;96352.53;4982963;28;20497;-43
2024/02/05 04:01:23;;;;;;;3.05;1.50;;;;;;;1.18;79.72;96342.38;4984712;28;20054;-42
2024/02/05 04:03:49;;;;;;;3.65;1.60;;;;;;;1.20;80.43;96350.78;4980983;28;20141;-43
2024/02/05 04:06:15;;;;;;;4.25;1.67;;;;;;;1.21;80.08;96349.88;4999581;28;20116;-43
2024/02/05 04:08:41;;;;;;;4.80;1.48;;;;;;;1.10;79.96;96348.78;5002772;28;20038;-42
2024/02/05 04:11:07;;;;;;;3.65;1.27;;;;;;;1.01;80.03;96354.34;4995515;28;20108;-44
2024/02/05 04:13:33;;;;;;;4.80;1.30;;;;;;;0.98;79.98;96345.13;4982037;28;20034;-41
2024/02/05 04:16:00;;;;;;;6.82;1.70;;;;;;;0.95;80.43;96347.81;4996029;28;20481;-43
2024/02/05 04:18:26;;;;;;;8.32;1.80;;;;;;;1.03;79.89;96350.81;4981376;28;20061;-43
2024/02/05 04:20:56;;;;;;;5.10;1.58;;;;;;;1.02;80.31;96356.00;4980325;28;20129;-42
2024/02/05 04:23:26;;;;;;;2.72;1.35;;;;;;;1.02;80.17;96344.06;4996978;28;20188;-43
2024/02/05 04:25:52;;;;;;;3.35;1.35;;;;;;;1.05;79.85;96346.44;5001596;28;20149;-43
2024/02/05 04:28:18;;;;;;;4.95;1.45;;;;;;;0.61;79.97;96274.53;4963482;28;20049;-43
2024/02/05 04:30:44;;;;;;;2.13;1.40;;;;;;;1.11;80.37;96346.13;4964885;28;20100;-41
2024/02/05 04:33:10;;;;;;;4.57;1.63;;;;;;;1.08;80.07;96348.88;4977822;28;20095;-42
2024/02/05 04:35:36;;;;;;;4.05;2.03;;;;;;;1.08;80.06;96350.59;5005142;28;20073;-46
2024/02/05 04:38:02;;;;;;;4.35;1.27;;;;;;;0.81;79.95;96305.03;4999470;28;20050;-44
2024/02/05 04:40:28;;;;;;;5.38;1.40;;;;;;;1.04;79.47;96343.97;4994467;28;20069;-44
2024/02/05 04:42:54;;;;;;;3.50;1.60;;;;;;;1.01;79.76;96346.69;4995208;28;20042;-43
2024/02/05 04:45:19;;;;;;;6.53;1.70;;;;;;;1.00;79.91;96343.28;4976455;28;20042;-43
2024/02/05 04:47:49;;;;;;;5.93;1.77;;;;;;;0.90;79.87;96344.66;4996118;28;20038;-43
2024/02/05 04:50:16;;;;;;;6.32;1.58;;;;;;;0.87;79.42;96332.03;4991576;28;20054;-43
2024/02/05 04:52:42;;;;;;;9.18;2.38;;;;;;;0.67;79.64;96296.41;4993182;28;20069;-43
2024/02/05 04:55:08;;;;;;;6.65;2.85;;;;;;;1.00;79.50;96327.13;5000855;28;20038;-44
2024/02/05 04:57:34;;;;;;;13.40;3.28;;;;;;;0.82;79.32;96285.41;4950415;28;20030;-44
2024/02/05 05:00:04;;;;;;;7.70;2.40;;;;;;;1.19;79.17;96317.63;4996321;28;20045;-43
2024/02/05 05:02:31;;;;;;;4.32;1.50;;;;;;;1.36;78.95;96320.13;4995600;28;20588;-45
2024/02/05 05:04:57;;;;;;;3.70;1.60;;;;;;;1.05;78.85;96286.78;5002053;28;20041;-44
2024/02/05 05:07:23;;;;;;;5.32;1.88;;;;;;;1.14;78.35;96322.97;4985965;28;20034;-45
2024/02/05 05:09:49;;;;;;;4.30;1.67;;;;;;;1.01;78.76;96316.81;4989955;28;20050;-42
2024/02/05 05:12:18;;;;;;;3.85;1.90;;;;;;;0.85;78.60;96323.59;4973361;28;20042;-45
2024/02/05 05:14:44;;;;;;;7.43;1.93;;;;;;;0.36;78.87;96268.97;4970562;28;20085;-44
2024/02/05 05:17:10;;;;;;;8.68;2.33;;;;;;;0.37;79.41;96289.31;4987026;28;20293;-44
2024/02/05 05:19:35;;;;;;;5.30;2.00;;;;;;;0.27;79.91;96287.28;4962247;28;20046;-45
2024/02/05 05:22:02;;;;;;;7.28;1.70;;;;;;;0.44;80.30;96323.06;4982438;28;20225;-44
2024/02/05 05:24:28;;;;;;;4.45;1.58;;;;;;;0.36;80.37;96307.28;4986258;28;20050;-47
2024/02/05 05:26:54;;;;;;;5.88;2.20;;;;;;;0.46;80.87;96320.44;4989304;28;20041;-45
2024/02/05 05:29:20;;;;;;;5.78;2.00;;;;;;;0.51;80.46;96327.00;4987755;28;20513;-43
2024/02/05 05:31:46;;;;;;;5.22;2.10;;;;;;;0.56;80.44;96311.44;4983893;28;20478;-45
2024/02/05 05:34:12;;;;;;;9.10;3.38;;;;;;;0.68;80.51;96310.84;4970071;28;20042;-47
2024/02/05 05:36:38;;;;;;;7.35;2.40;;;;;;;0.78;80.01;96315.44;5005508;28;20042;-48
2024/02/05 05:39:05;;;;;;;3.75;2.10;;;;;;;0.76;79.24;96313.84;5007646;28;20514;-43
2024/02/05 05:41:31;;;;;;;8.10;2.42;;;;;;;0.62;79.16;96276.19;5006049;28;20526;-44
2024/02/05 05:43:58;;;;;;;4.70;2.20;;;;;;;0.69;79.08;96276.69;5007288;28;20095;-44
2024/02/05 05:46:24;;;;;;;5.25;2.00;;;;;;;0.72;78.41;96308.06;5006201;28;20390;-43
2024/02/05 05:48:50;;;;;;;7.05;2.15;;;;;;;0.51;78.56;96275.06;5006737;28;20053;-43
2024/02/05 05:51:18;;;;;;;6.75;2.28;;;;;;;0.66;78.76;96302.41;4985574;28;20050;-45
2024/02/05 05:53:44;;;;;;;4.95;2.20;;;;;;;0.64;79.24;96302.47;4938368;28;20173;-44
2024/02/05 05:56:10;;;;;;;5.95;2.10;;;;;;;0.58;79.12;96279.78;4973444;28;20531;-45
2024/02/05 05:58:36;;;;;;;10.48;2.92;;;;;;;1.00;78.98;96309.22;4973021;28;20100;-45
2024/02/05 06:01:05;;;;;;;5.68;2.25;;;;;;;1.15;78.53;96319.50;4987332;28;20049;-47
2024/02/05 06:03:35;;;;;;;3.38;1.77;;;;;;;0.92;78.07;96290.88;4987768;28;20042;-44
2024/02/05 06:06:02;;;;;;;6.72;1.70;;;;;;;0.52;78.02;96248.63;5000704;28;20565;-44
2024/02/05 06:08:27;;;;;;;9.18;2.10;;;;;;;0.85;77.90;96306.53;4969167;28;20041;-44
2024/02/05 06:10:53;;;;;;;2.65;1.27;;;;;;;0.88;77.86;96309.84;4987214;28;20045;-43
2024/02/05 06:13:19;;;;;;;5.60;1.98;;;;;;;0.83;77.76;96313.47;4985556;28;20379;-44
2024/02/05 06:15:45;;;;;;;2.83;1.70;;;;;;;0.85;78.28;96308.25;4994729;28;20068;-43
2024/02/05 06:18:12;;;;;;;4.38;1.83;;;;;;;0.92;78.13;96312.19;4972036;28;20083;-45
2024/02/05 06:20:38;;;;;;;10.13;3.85;;;;;;;0.72;77.67;96276.56;4969201;28;20042;-44
2024/02/05 06:23:05;;;;;;;5.60;2.30;;;;;;;0.67;77.76;96264.00;4986946;28;20096;-44
2024/02/05 06:25:31;;;;;;;7.10;2.50;;;;;;;0.95;77.66;96316.28;4990291;28;20061;-44
2024/02/05 06:27:57;;;;;;;5.50;1.70;;;;;;;0.98;77.38;96321.28;5004442;28;20399;-46
2024/02/05 06:30:23;;;;;;;4.70;2.10;;;;;;;0.94;77.16;96317.22;5006480;28;20077;-44
2024/02/05 06:32:49;;;;;;;3.40;1.55;;;;;;;1.11;77.23;96317.19;5006561;28;20037;-44
2024/02/05 06:35:15;;;;;;;5.22;1.60;;;;;;;1.07;76.52;96324.19;5005665;28;20061;-43
2024/02/05 06:37:41;;;;;;;8.07;2.05;;;;;;;1.01;76.56;96316.00;4987127;28;20089;-43
2024/02/05 06:40:08;;;;;;;3.03;1.48;;;;;;;1.05;76.34;96318.31;4987079;28;20090;-46
2024/02/05 06:42:34;;;;;;;4.65;1.23;;;;;;;1.04;76.29;96316.69;4985220;28;20062;-42
2024/02/05 06:45:00;;;;;;;7.63;2.33;;;;;;;0.98;76.15;96311.88;4993596;28;20049;-47
2024/02/05 06:47:26;;;;;;;5.82;2.05;;;;;;;0.97;76.59;96305.09;4988553;28;20045;-43
2024/02/05 06:49:52;;;;;;;7.30;2.05;;;;;;;0.75;76.29;96240.59;5006122;28;20057;-45
2024/02/05 06:52:19;;;;;;;4.95;1.35;;;;;;;1.18;75.94;96306.56;5004434;28;20088;-43
2024/02/05 06:54:45;;;;;;;5.50;1.83;;;;;;;1.14;75.50;96309.38;4988375;28;20299;-43
2024/02/05 06:57:13;;;;;;;2.50;1.08;;;;;;;0.94;75.81;96281.41;4987019;28;20103;-43
2024/02/05 06:59:39;;;;;;;4.55;1.35;;;;;;;1.09;75.44;96312.16;5006362;28;20030;-44
2024/02/05 07:02:08;;;;;;;5.20;1.98;;;;;;;1.03;75.46;96312.47;4981072;28;20758;-44
2024/02/05 07:04:35;;;;;;;7.60;1.73;;;;;;;1.05;75.39;96312.38;5002275;28;20510;-44
2024/02/05 07:07:02;;;;;;;7.05;2.00;;;;;;;0.88;75.79;96289.41;4986130;28;20069;-46
2024/02/05 07:09:29;;;;;;;7.70;1.40;;;;;;;0.99;75.76;96305.03;4955569;28;20069;-45
2024/02/05 07:11:55;;;;;;;5.53;1.65;;;;;;;0.98;76.18;96293.16;5003765;28;20046;-44
2024/02/05 07:14:21;;;;;;;7.00;2.10;;;;;;;1.26;75.85;96309.53;4982421;28;20061;-45
2024/02/05 07:16:47;;;;;;;5.80;1.77;;;;;;;1.16;75.62;96307.53;4993222;28;20168;-44
2024/02/05 07:19:13;;;;;;;7.38;2.30;;;;;;;1.12;75.95;96296.66;4995629;28;20602;-47
2024/02/05 07:21:39;;;;;;;9.98;2.25;;;;;;;1.31;75.96;96290.59;4979760;28;20053;-43
2024/02/05 07:24:05;;;;;;;6.20;1.92;;;;;;;1.24;75.11;96293.47;4977491;28;20037;-44
2024/02/05 07:26:33;;;;;;;7.28;2.75;;;;;;;1.26;75.53;96293.38;4993592;28;20046;-43
2024/02/05 07:28:59;;;;;;;16.35;1.75;;;;;;;0.91;75.55;96226.13;4998221;28;20065;-42
2024/02/05 07:31:25;;;;;;;6.47;1.38;;;;;;;1.28;74.92;96297.50;4988439;28;20136;-43
2024/02/05 07:33:51;;;;;;;3.80;1.77;;;;;;;1.40;75.12;96297.78;5001088;28;20046;-44
2024/02/05 07:36:17;;;;;;;5.25;1.90;;;;;;;1.47;74.62;96274.34;5000515;28;20046;-44
2024/02/05 07:38:43;;;;;;;3.83;1.60;;;;;;;1.52;74.45;96276.66;4999901;28;20038;-43
2024/02/05 07:41:10;;;;;;;11.63;2.38;;;;;;;1.75;74.40;96283.13;4996231;28;20046;-43
2024/02/05 07:43:39;;;;;;;4.72;1.67;;;;;;;1.62;73.75;96259.91;5001655;28;20049;-45
2024/02/05 07:46:07;;;;;;;9.95;2.45;;;;;;;1.65;73.14;96272.53;5006428;28;20369;-43
2024/02/05 07:48:34;;;;;;;7.82;2.00;;;;;;;1.80;73.00;96289.63;5008428;28;20053;-44
2024/02/05 07:51:03;;;;;;;7.72;2.03;;;;;;;1.92;73.24;96288.16;5001446;28;20077;-45
2024/02/05 07:53:29;;;;;;;5.50;1.70;;;;;;;2.04;72.66;96285.72;4997091;28;20426;-45
2024/02/05 07:55:55;;;;;;;6.28;2.10;;;;;;;2.03;72.40;96288.41;4981257;28;20048;-44
2024/02/05 07:58:21;;;;;;;7.32;2.20;;;;;;;2.11;72.48;96281.09;5002331;28;20165;-45
2024/02/05 08:00:47;;;;;;;5.35;2.30;;;;;;;2.10;72.01;96284.56;4996965;28;20097;-43
2024/02/05 08:03:14;;;;;;;8.85;2.20;;;;;;;2.30;72.06;96279.19;5001750;28;20101;-46
2024/02/05 08:05:40;;;;;;;6.25;1.70;;;;;;;2.50;71.94;96278.06;4988971;28;20462;-44
2024/02/05 08:08:06;;;;;;;8.57;1.88;;;;;;;2.66;70.85;96285.69;4990693;28;20046;-45
2024/02/05 08:10:33;;;;;;;9.93;2.83;;;;;;;2.66;70.39;96283.97;4994805;28;20038;-46
2024/02/05 08:13:01;;;;;;;8.30;3.22;;;;;;;2.68;70.29;96277.00;4994809;28;20056;-46
2024/02/05 08:15:27;;;;;;;9.95;2.47;;;;;;;2.82;69.74;96289.03;5001598;28;20038;-44
2024/02/05 08:17:52;;;;;;;7.10;2.17;;;;;;;2.72;69.66;96270.78;5000488;28;20044;-45
2024/02/05 08:20:18;;;;;;;5.70;2.10;;;;;;;2.82;69.18;96268.53;4978602;28;20041;-45
2024/02/05 08:22:45;;;;;;;5.68;2.05;;;;;;;2.87;68.98;96297.28;5003099;28;20133;-45
2024/02/05 08:25:11;;;;;;;7.97;1.95;;;;;;;2.81;68.91;96293.34;4978109;28;20137;-43
2024/02/05 08:27:37;;;;;;;7.07;2.30;;;;;;;2.47;68.57;96294.44;5001236;28;20042;-46
2024/02/05 08:30:03;;;;;;;6.88;1.63;;;;;;;2.44;69.18;96296.34;5005502;28;20449;-44
2024/02/05 08:32:31;;;;;;;5.85;1.92;;;;;;;2.41;68.50;96286.25;5007021;28;20128;-45
2024/02/05 08:34:57;;;;;;;4.47;1.60;;;;;;;2.39;68.62;96288.91;5002223;28;20074;-49
2024/02/05 08:37:23;;;;;;;3.72;1.50;;;;;;;2.41;68.26;96289.63;4986346;28;20502;-46
2024/02/05 08:39:49;;;;;;;6.18;2.05;;;;;;;2.38;68.03;96277.00;5007229;28;20033;-44
2024/02/05 08:42:14;;;;;;;5.22;1.80;;;;;;;2.70;68.14;96284.59;4995362;28;20037;-44
2024/02/05 08:44:40;;;;;;;3.42;1.30;;;;;;;2.86;67.68;96281.06;4981415;28;20042;-48
2024/02/05 08:47:08;;;;;;;3.65;1.48;;;;;;;2.20;66.54;96208.06;5002086;28;20069;-44
2024/02/05 08:49:35;;;;;;;4.35;1.80;;;;;;;2.45;66.69;96282.63;4992390;28;20046;-45
2024/02/05 08:52:02;;;;;;;7.32;2.15;;;;;;;2.51;66.68;96285.66;4981134;28;20065;-44
2024/02/05 08:54:29;;;;;;;4.13;2.15;;;;;;;2.64;66.21;96277.25;5001652;28;20124;-47
2024/02/05 08:56:54;;;;;;;6.47;2.10;;;;;;;2.67;66.33;96279.66;5002431;28;20038;-49
2024/02/05 08:59:20;;;;;;;5.95;1.60;;;;;;;2.90;65.71;96281.72;4998547;28;20115;-49
2024/02/05 09:01:48;;;;;;;4.72;1.58;;;;;;;3.03;65.66;96280.09;5002555;28;20046;-48
2024/02/05 09:04:14;;;;;;;3.97;1.42;;;;;;;3.01;65.16;96279.34;4978645;28;20454;-47
2024/02/05 09:06:40;;;;;;;5.75;1.92;;;;;;;3.15;65.68;96271.66;4979104;28;20281;-50
2024/02/05 09:09:08;;;;;;;7.38;2.25;;;;;;;3.36;65.07;96270.38;5001477;28;20058;-44
2024/02/05 09:11:34;;;;;;;6.82;1.63;;;;;;;3.43;64.76;96234.88;5004984;28;20524;-46
2024/02/05 09:14:00;;;;;;;5.95;2.20;;;;;;;3.62;63.50;96271.34;5007478;28;20045;-45
2024/02/05 09:16:26;;;;;;;5.22;1.60;;;;;;;3.77;63.35;96260.13;4999671;28;20497;-47
2024/02/05 09:18:52;;;;;;;9.13;2.25;;;;;;;3.89;62.79;96235.44;4981210;28;20038;-50
2024/02/05 09:21:17;;;;;;;7.60;2.33;;;;;;;4.32;62.57;96264.38;5003617;28;20056;-45
2024/02/05 09:23:43;;;;;;;7.13;1.70;;;;;;;4.25;61.09;96266.50;5006889;28;20042;-46
2024/02/05 09:26:09;;;;;;;3.65;1.67;;;;;;;4.12;61.24;96259.69;4998539;28;20046;-44
2024/02/05 09:28:35;;;;;;;5.80;1.90;;;;;;;4.29;60.92;96261.19;4969984;28;20093;-46
2024/02/05 09:31:03;;;;;;;7.32;1.70;;;;;;;4.38;60.82;96260.59;4987346;28;20572;-46
2024/02/05 09:33:30;;;;;;;7.75;1.65;;;;;;;4.34;60.66;96236.84;4994257;28;20049;-45
2024/02/05 09:35:56;;;;;;;3.65;1.55;;;;;;;4.43;60.90;96259.38;4997721;28;20112;-46
2024/02/05 09:38:23;;;;;;;4.63;1.77;;;;;;;4.35;60.61;96260.75;4996319;28;20092;-45
2024/02/05 09:40:54;;;;;;;4.63;1.50;;;;;;;4.13;60.58;96244.19;5002046;28;20038;-43
2024/02/05 09:43:20;;;;;;;8.65;1.60;;;;;;;4.20;60.59;96265.16;4998347;28;20093;-47
2024/02/05 09:45:50;;;;;;;2.95;1.67;;;;;;;4.24;60.60;96274.31;4984623;28;20042;-45
2024/02/05 09:48:16;;;;;;;4.18;1.48;;;;;;;4.22;60.23;96264.16;5005389;28;20045;-42
2024/02/05 09:50:43;;;;;;;3.38;1.60;;;;;;;4.29;60.60;96269.72;4975859;28;20042;-45
2024/02/05 09:53:09;;;;;;;4.07;1.38;;;;;;;4.28;60.42;96273.22;4986107;28;20038;-45
2024/02/05 09:55:35;;;;;;;6.78;2.38;;;;;;;3.99;60.14;96215.13;4991603;28;20465;-46
2024/02/05 09:58:01;;;;;;;7.60;1.90;;;;;;;4.36;60.20;96265.81;4989163;28;20125;-43
2024/02/05 10:00:27;;;;;;;3.33;1.25;;;;;;;4.08;60.14;96227.41;4962476;28;20496;-47
2024/02/05 10:02:56;;;;;;;4.78;1.73;;;;;;;4.08;60.45;96227.41;4986374;28;20042;-45
2024/02/05 10:05:23;;;;;;;7.20;1.63;;;;;;;4.26;60.50;96255.31;4989188;28;20053;-45
2024/02/05 10:07:50;;;;;;;5.70;1.27;;;;;;;4.50;60.30;96265.75;4999922;28;20038;-45
2024/02/05 10:10:17;;;;;;;5.90;1.40;;;;;;;4.50;58.79;96272.66;4971259;28;20087;-45
2024/02/05 10:12:45;;;;;;;3.92;1.08;;;;;;;4.51;58.67;96271.72;5005314;28;20124;-48
2024/02/05 10:15:12;;;;;;;3.70;0.98;;;;;;;4.15;58.24;96218.34;4988254;28;20729;-45
2024/02/05 10:17:38;;;;;;;4.22;1.20;;;;;;;4.14;57.53;96234.69;4994177;28;20129;-48
2024/02/05 10:20:09;;;;;;;6.30;1.60;;;;;;;4.41;57.59;96262.94;4993059;28;20151;-46
2024/02/05 10:22:43;;;;;;;5.63;1.40;;;;;;;4.67;57.57;96262.91;4987985;28;20041;-44
2024/02/05 10:25:12;;;;;;;4.47;1.40;;;;;;;4.83;57.58;96262.72;4969818;28;20049;-48
2024/02/05 10:27:38;;;;;;;4.37;1.07;;;;;;;5.06;56.59;96261.19;5005730;28;20128;-44
2024/02/05 10:30:05;;;;;;;3.60;1.23;;;;;;;4.66;56.20;96219.28;4994019;28;20331;-45
2024/02/05 10:32:32;;;;;;;4.45;1.13;;;;;;;5.08;56.03;96264.47;4996334;28;20141;-49
2024/02/05 10:34:59;;;;;;;5.10;1.10;;;;;;;5.10;55.92;96260.06;5000669;28;20038;-45
2024/02/05 10:37:25;;;;;;;10.70;1.50;;;;;;;5.04;55.49;96238.13;5005782;28;20050;-42
2024/02/05 10:40:05;;;;;;;6.97;1.90;;;;;;;5.19;55.47;96268.91;5004847;28;20030;-45
2024/02/05 10:42:32;;;;;;;4.72;1.63;;;;;;;4.78;55.76;96203.03;5006084;28;20069;-49
2024/02/05 10:44:58;;;;;;;3.75;1.30;;;;;;;5.12;55.60;96260.78;5005705;28;20561;-44
2024/02/05 10:47:24;;;;;;;4.28;2.20;;;;;;;5.24;55.38;96265.09;4997514;28;20065;-46
2024/02/05 10:49:50;;;;;;;7.45;1.88;;;;;;;5.47;54.96;96266.13;4986184;28;20053;-43
2024/02/05 10:52:16;;;;;;;4.82;1.88;;;;;;;5.60;54.64;96269.47;5003332;28;20053;-45
2024/02/05 10:54:45;;;;;;;7.38;1.90;;;;;;;5.82;54.50;96266.25;4987306;28;20129;-46
2024/02/05 10:57:13;;;;;;;6.30;1.80;;;;;;;5.86;54.23;96247.88;5000804;28;20037;-46
2024/02/05 10:59:39;;;;;;;6.15;1.27;;;;;;;5.77;52.64;96225.34;4999230;28;20159;-45
2024/02/05 11:02:17;;;;;;;3.33;1.50;;;;;;;6.68;51.52;96235.97;4993682;28;20497;-44
2024/02/05 11:04:42;;;;;;;3.35;1.20;;;;;;;7.41;50.49;96259.69;4999701;28;20057;-44
2024/02/05 11:07:09;;;;;;;4.63;1.13;;;;;;;7.41;49.81;96264.03;4994581;28;20046;-47
2024/02/05 11:09:37;;;;;;;2.33;0.77;;;;;;;6.79;49.13;96259.25;5000516;28;20069;-48
2024/02/05 11:12:03;;;;;;;4.03;1.20;;;;;;;6.68;48.98;96259.19;4988302;28;20041;-46
2024/02/05 11:14:33;;;;;;;3.78;1.70;;;;;;;6.63;49.64;96254.38;5007923;28;20541;-45
2024/02/05 11:16:59;;;;;;;7.78;2.33;;;;;;;7.16;49.66;96247.81;5007381;28;20041;-45
2024/02/05 11:19:25;;;;;;;2.67;1.35;;;;;;;8.82;47.40;96257.94;5009394;28;20033;-45
2024/02/05 11:21:52;;;;;;;3.25;1.48;;;;;;;9.23;46.72;96264.88;5009476;28;20064;-50
2024/02/05 11:24:19;;;;;;;5.15;1.33;;;;;;;8.17;46.60;96269.22;5007470;28;20053;-48
2024/02/05 11:26:45;;;;;;;4.05;1.33;;;;;;;6.67;47.18;96237.72;5000399;28;20141;-46
2024/02/05 11:29:26;;;;;;;5.00;1.77;;;;;;;6.19;48.80;96267.91;5005297;28;20420;-45
2024/02/05 11:31:54;;;;;;;5.70;1.35;;;;;;;6.00;49.20;96266.75;4999463;28;20045;-46
2024/02/05 11:34:20;;;;;;;3.40;1.50;;;;;;;6.55;49.82;96264.41;4994483;28;20049;-46
2024/02/05 11:36:46;;;;;;;2.55;1.48;;;;;;;7.08;48.21;96244.97;4985097;28;20070;-44
2024/02/05 11:39:15;;;;;;;3.45;1.52;;;;;;;9.11;46.31;96269.31;5001056;28;20045;-46
2024/02/05 11:41:41;;;;;;;3.40;1.60;;;;;;;10.37;43.37;96268.84;5001730;28;20046;-49